Latest Weather Observations for Borroloola

IDD60801

Issued at 12:35 pm CST Friday 18 April 2014 (issued every 30 minutes, with the page automatically refreshed every 10 minutes)

About weather observations | Map of weather stations | Latest weather observations for NT | Other Formats
Station Details ID: 014723 Name: BORROLOOLA AIRPORT Lat: -16.08 Lon: 136.30 Height: 16.1 m
Data from the previous 72 hours. | See also: Recent months at Borroloola
Date/Time
CST
Temp
°C
App
Temp
°C
Dew
Point
Rel
Hum
%
Delta-T
°C
Wind Press
QNH
hPa
Press
MSL
hPa
Rain
since 9 am
mm
Dir
 
Spd
km/h
Gust
km/h
Spd
kts
Gust
kts
18/12:30pm 33.8 33.5 19.5 43 9.4 E 20 32 11 17 1011.9 - 0.0
18/12:00pm 34.4 34.7 19.6 41 9.8 E 17 35 9 19 1012.2 1012.1 0.0
18/11:30am 33.1 33.2 19.2 43 9.1 SE 17 24 9 13 1012.4 - 0.0
18/11:00am 33.0 32.7 19.1 43 9.1 ESE 19 26 10 14 1012.6 - 0.0
18/10:30am 31.9 31.5 18.8 45 8.5 SSE 19 24 10 13 1012.6 - 0.0
18/10:00am 31.5 32.3 19.8 49 7.7 SSE 15 22 8 12 1012.8 - 0.0
18/09:30am 30.2 30.4 20.2 55 6.6 SSE 19 26 10 14 1013.0 - 0.0
18/09:00am 28.7 29.5 20.7 62 5.3 S 17 22 9 12 1012.8 1012.7 6.8
18/08:30am 27.4 29.7 22.1 73 3.6 SSE 13 17 7 9 1012.6 - 6.8
18/08:00am 26.4 30.2 23.5 84 2.0 SSW 9 11 5 6 1012.5 - 6.8
18/07:30am 24.6 29.7 22.7 89 1.3 CALM 0 0 0 0 1012.2 - 6.8
18/07:00am 23.6 27.0 21.7 89 1.3 W 6 7 3 4 1011.8 - 6.8
18/06:30am 23.4 27.1 21.5 89 1.3 S 4 7 2 4 1011.5 - 6.8
18/06:00am 23.9 28.1 21.8 88 1.4 S 2 6 1 3 1011.4 1011.3 6.8
18/05:30am 24.2 28.2 22.1 88 1.4 S 4 7 2 4 1011.5 - 6.8
18/05:00am 24.5 28.1 22.4 88 1.4 S 7 9 4 5 1011.5 - 6.8
18/04:30am 24.3 27.6 22.6 90 1.1 S 9 13 5 7 1011.4 - 6.8
18/04:00am 24.3 29.4 22.6 90 1.1 CALM 0 0 0 0 1011.2 - 6.8
18/03:30am 24.4 29.5 22.7 90 1.1 CALM 0 0 0 0 1011.3 - 6.8
18/03:00am 24.3 29.4 22.6 90 1.1 CALM 0 0 0 0 1011.4 1011.3 6.8
18/02:30am 24.2 29.2 22.5 90 1.1 CALM 0 0 0 0 1011.5 - 6.8
18/02:00am 24.1 29.0 22.4 90 1.1 CALM 0 0 0 0 1011.7 - 6.8
18/01:30am 24.0 28.9 22.3 90 1.1 CALM 0 0 0 0 1011.9 - 6.8
18/01:00am 24.2 28.8 22.5 90 1.1 SW 2 6 1 3 1012.0 - 6.8
18/12:30am 24.1 28.9 22.2 89 1.3 CALM 0 0 0 0 1012.7 - 6.8
18/12:00am 24.0 27.6 22.1 89 1.3 SW 6 7 3 4 1013.0 1012.9 6.8
 
Date/Time
CST
Temp
°C
App
Temp
°C
Dew
Point
Rel
Hum
%
Delta-T
°C
Wind Press
QNH
hPa
Press
MSL
hPa
Rain
since 9 am
mm
Dir
 
Spd
km/h
Gust
km/h
Spd
kts
Gust
kts
17/11:30pm 24.2 29.1 22.3 89 1.3 CALM 0 0 0 0 1013.2 - 6.8
17/11:00pm 24.3 29.2 22.4 89 1.3 CALM 0 0 0 0 1013.5 - 6.8
17/10:30pm 24.2 29.0 22.1 88 1.4 CALM 0 0 0 0 1013.5 - 6.8
17/10:00pm 24.2 29.0 22.1 88 1.4 CALM 0 0 0 0 1013.7 - 6.8
17/09:30pm 24.5 29.3 22.2 87 1.5 CALM 0 0 0 0 1013.6 - 6.8
17/09:00pm 24.5 28.5 22.0 86 1.7 SSW 4 7 2 4 1013.4 1013.3 6.8
17/08:30pm 24.6 27.9 21.9 85 1.8 S 7 9 4 5 1013.3 - 6.8
17/08:00pm 24.9 29.7 22.2 85 1.8 CALM 0 7 0 4 1012.9 - 6.8
17/07:30pm 25.2 29.7 22.3 84 1.9 SSE 2 7 1 4 1012.5 - 6.8
17/07:00pm 25.3 28.6 22.6 85 1.8 E 9 13 5 7 1012.3 - 6.8
17/06:30pm 25.2 28.3 22.9 87 1.6 ESE 11 15 6 8 1012.1 - 6.8
17/06:00pm 25.1 29.2 23.0 88 1.4 ESE 6 7 3 4 1011.9 1011.8 6.8
17/05:30pm 24.7 28.3 22.4 87 1.5 ESE 7 9 4 5 1011.4 - 6.8
17/05:00pm 24.5 26.7 21.8 85 1.8 E 13 20 7 11 1011.2 - 6.8
17/04:30pm 24.7 25.9 22.2 86 1.7 E 19 28 10 15 1011.2 - 6.4
17/04:00pm 24.9 25.8 22.0 84 1.9 E 20 30 11 16 1011.2 - 6.0
17/03:30pm 26.3 30.1 23.4 84 2.0 ESE 9 13 5 7 1010.6 - 5.8
17/03:00pm 25.6 29.3 23.3 87 1.6 SSE 9 13 5 7 1010.6 1010.5 5.8
17/02:30pm 24.5 25.7 21.4 83 2.0 SSE 17 28 9 15 1011.0 - 5.0
17/02:17pm 25.5 24.6 21.4 78 2.7 SE 28 37 15 20 1011.1 - 2.2
17/02:00pm 30.6 33.5 23.8 67 4.7 E 15 24 8 13 1010.8 - 2.2
17/01:30pm 29.6 34.3 24.9 76 3.3 ENE 9 15 5 8 1011.0 - 2.2
17/01:00pm 27.1 30.0 23.1 79 2.7 E 13 20 7 11 1011.4 - 2.0
17/12:30pm 30.5 32.8 22.7 63 5.3 ESE 15 22 8 12 1011.7 - 0.0
17/12:00pm 31.9 34.9 24.0 63 5.5 E 15 24 8 13 1012.1 1012.0 0.0
17/11:30am 29.8 32.4 23.3 68 4.5 ESE 15 20 8 11 1012.6 - 0.0
17/11:00am 28.1 30.0 22.1 70 4.0 ESE 15 22 8 12 1012.9 - 0.0
17/10:30am 26.3 28.1 21.1 73 3.4 ESE 13 24 7 13 1013.3 - 0.0
17/10:13am 26.4 23.9 19.8 67 4.3 E 32 44 17 24 1013.3 - 0.0
17/10:00am 31.5 32.5 22.2 57 6.3 ESE 20 30 11 16 1012.8 - 0.0
17/09:30am 32.1 33.7 22.8 58 6.4 ESE 19 28 10 15 1012.8 - 0.0
17/09:00am 31.1 33.6 23.2 63 5.4 SE 15 22 8 12 1012.5 1012.4 0.0
17/08:30am 29.1 31.7 22.6 68 4.4 S 13 17 7 9 1012.3 - 0.0
17/08:00am 27.1 31.2 22.9 78 2.9 SSE 6 11 3 6 1012.1 - 0.0
17/07:30am 24.1 28.6 21.6 86 1.7 CALM 0 0 0 0 1012.1 - 0.0
17/07:00am 22.3 25.7 20.2 88 1.4 WSW 2 6 1 3 1011.8 - 0.0
17/06:30am 21.7 25.1 19.4 87 1.5 CALM 0 0 0 0 1011.6 - 0.0
17/06:00am 21.8 25.3 19.5 87 1.5 CALM 0 0 0 0 1011.5 1011.4 0.0
17/05:30am 21.9 25.3 19.3 85 1.7 CALM 0 0 0 0 1011.1 - 0.0
17/05:00am 21.9 25.3 19.3 85 1.7 CALM 0 0 0 0 1010.9 - 0.0
17/04:30am 21.9 25.3 19.3 85 1.7 CALM 0 0 0 0 1010.7 - 0.0
17/04:00am 21.9 24.0 19.3 85 1.7 S 7 9 4 5 1010.6 - 0.0
17/03:30am 22.0 25.3 19.2 84 1.8 CALM 0 0 0 0 1010.4 - 0.0
17/03:00am 22.1 25.4 19.1 83 1.9 CALM 0 0 0 0 1010.2 1010.1 0.0
17/02:30am 22.2 25.5 19.2 83 1.9 CALM 0 0 0 0 1010.4 - 0.0
17/02:00am 22.3 25.6 19.1 82 2.0 CALM 0 0 0 0 1010.5 - 0.0
17/01:30am 22.4 25.7 19.2 82 2.0 CALM 0 0 0 0 1010.8 - 0.0
17/01:00am 22.6 25.9 19.2 81 2.2 CALM 0 0 0 0 1011.0 - 0.0
17/12:30am 23.0 26.4 19.4 80 2.3 CALM 0 0 0 0 1011.2 - 0.0
17/12:00am 23.2 25.9 19.4 79 2.4 NW 4 7 2 4 1011.3 1011.2 0.0
 
Date/Time
CST
Temp
°C
App
Temp
°C
Dew
Point
Rel
Hum
%
Delta-T
°C
Wind Press
QNH
hPa
Press
MSL
hPa
Rain
since 9 am
mm
Dir
 
Spd
km/h
Gust
km/h
Spd
kts
Gust
kts
16/11:30pm 23.6 27.1 19.5 78 2.6 CALM 0 0 0 0 1011.5 - 0.0
16/11:00pm 24.0 27.5 19.5 76 2.9 CALM 0 0 0 0 1011.7 - 0.0
16/10:30pm 24.4 27.5 19.5 74 3.1 NE 2 6 1 3 1011.6 - 0.0
16/10:00pm 25.3 29.0 19.9 72 3.5 CALM 0 0 0 0 1011.7 - 0.0
16/09:30pm 25.7 27.6 19.8 70 3.8 NNE 9 9 5 5 1011.5 - 0.0
16/09:00pm 26.1 28.3 19.7 68 4.1 NNE 7 9 4 5 1011.2 1011.1 0.0
16/08:30pm 26.5 28.2 19.4 65 4.6 NNE 9 11 5 6 1010.9 - 0.0
16/08:00pm 27.0 29.1 19.4 63 4.9 NNE 7 9 4 5 1010.5 - 0.0
16/07:30pm 28.1 29.5 19.6 60 5.5 NNE 11 13 6 7 1010.1 - 0.0
16/07:00pm 28.4 29.9 18.8 56 6.2 NNE 9 13 5 7 1009.8 - 0.0
16/06:30pm 29.5 30.1 17.7 49 7.5 NNE 11 13 6 7 1009.5 - 0.0
16/06:00pm 30.7 31.0 17.0 43 8.7 NE 11 17 6 9 1009.4 1009.3 0.0
16/05:30pm 32.1 31.6 16.8 40 9.7 NE 15 20 8 11 1009.1 - 0.0
16/05:00pm 33.6 33.3 17.3 37 10.4 NNE 15 22 8 12 1008.7 - 0.0
16/04:30pm 34.4 34.6 17.6 37 10.8 NE 13 20 7 11 1008.4 - 0.0
16/04:00pm 35.2 35.1 17.0 34 11.7 E 13 20 7 11 1008.5 - 0.0
16/03:30pm 35.2 34.5 16.5 33 11.9 NE 15 19 8 10 1008.4 - 0.0
16/03:00pm 35.1 34.6 15.9 31 12.1 E 13 20 7 11 1008.6 1008.5 0.0
16/02:30pm 35.6 34.7 15.9 31 12.5 ESE 15 24 8 13 1008.7 - 0.0
16/02:00pm 35.5 34.0 15.3 30 12.7 E 17 28 9 15 1009.0 - 0.0
16/01:30pm 35.8 34.2 15.0 29 13.0 E 17 26 9 14 1009.2 - 0.0
16/01:00pm 35.2 33.4 14.5 29 12.8 ENE 17 22 9 12 1009.5 - 0.0
16/12:30pm 35.2 33.8 15.5 30 12.4 ESE 17 24 9 13 1009.9 - 0.0
16/12:00pm 35.0 34.5 15.8 31 12.1 E 13 24 7 13 1010.2 1010.1 0.0
16/11:30am 34.2 33.8 16.1 34 11.4 ESE 13 17 7 9 1010.8 - 0.0
16/11:00am 33.3 32.9 16.2 36 10.8 ESE 13 20 7 11 1011.3 - 0.0
16/10:30am 32.8 33.3 17.4 39 9.9 SE 11 20 6 11 1011.7 - 0.0
16/10:00am 32.1 32.6 18.3 44 8.9 SE 13 19 7 10 1011.8 - 0.0
16/09:30am 31.0 30.9 18.7 48 8.0 SE 17 20 9 11 1011.9 - 0.0
16/09:00am 30.4 31.8 20.3 54 6.7 ESE 13 19 7 10 1011.7 1011.6 0.0
16/08:30am 28.3 31.5 22.3 70 4.1 SSE 9 13 5 7 1011.5 - 0.0
16/08:00am 24.8 29.4 21.7 83 2.1 CALM 0 0 0 0 1011.3 - 0.0
16/07:30am 22.7 26.6 20.4 87 1.5 CALM 0 0 0 0 1011.1 - 0.0
16/07:00am 21.6 24.9 19.2 86 1.5 CALM 0 0 0 0 1011.0 - 0.0
16/06:30am 21.6 24.9 19.0 85 1.6 CALM 0 4 0 2 1010.8 - 0.0
16/06:00am 22.1 25.6 19.6 86 1.6 CALM 0 0 0 0 1010.6 1010.5 0.0
16/05:30am 22.3 26.0 20.0 87 1.5 CALM 0 0 0 0 1010.5 - 0.0
16/05:00am 22.2 25.4 19.7 86 1.6 ENE 2 6 1 3 1010.3 - 0.0
16/04:30am 21.8 25.1 19.2 85 1.6 CALM 0 0 0 0 1010.3 - 0.0
16/04:00am 21.6 23.8 19.2 86 1.5 S 6 6 3 3 1010.1 - 0.0
16/03:30am 21.1 24.0 18.3 84 1.7 CALM 0 0 0 0 1009.7 - 0.0
16/03:00am 21.3 24.2 18.3 83 1.9 CALM 0 0 0 0 1009.6 1009.5 0.0
16/02:30am 21.4 24.4 18.4 83 1.9 CALM 0 0 0 0 1009.8 - 0.0
16/02:00am 21.5 24.4 18.3 82 2.0 CALM 0 0 0 0 1010.0 - 0.0
16/01:30am 21.8 24.9 18.6 82 2.0 CALM 0 0 0 0 1010.3 - 0.0
16/01:00am 21.9 24.9 18.5 81 2.1 CALM 0 0 0 0 1010.5 - 0.0
16/12:30am 22.1 25.1 18.5 80 2.3 CALM 0 0 0 0 1010.7 - 0.0
16/12:00am 22.2 25.2 18.4 79 2.4 CALM 0 0 0 0 1010.8 1010.7 0.0
 
Date/Time
CST
Temp
°C
App
Temp
°C
Dew
Point
Rel
Hum
%
Delta-T
°C
Wind Press
QNH
hPa
Press
MSL
hPa
Rain
since 9 am
mm
Dir
 
Spd
km/h
Gust
km/h
Spd
kts
Gust
kts
15/11:30pm 22.6 25.6 18.4 77 2.6 CALM 0 0 0 0 1011.0 - 0.0
15/11:00pm 22.9 25.8 18.2 75 2.9 CALM 0 0 0 0 1011.0 - 0.0
15/10:30pm 23.6 26.6 18.5 73 3.2 CALM 0 0 0 0 1011.1 - 0.0
15/10:00pm 24.3 26.2 18.5 70 3.7 NW 6 7 3 4 1011.0 - 0.0
15/09:30pm 25.0 26.8 18.4 66 4.2 NNE 6 7 3 4 1011.1 - 0.0
15/09:00pm 25.9 27.5 18.3 63 4.8 NNE 7 9 4 5 1010.9 1010.8 0.0
15/08:30pm 26.9 28.2 18.5 60 5.4 NNE 9 13 5 7 1010.7 - 0.0
15/08:00pm 27.0 27.8 17.2 55 6.1 NE 9 11 5 6 1010.2 - 0.0
15/07:30pm 27.7 28.1 16.3 49 7.1 NE 9 13 5 7 1009.7 - 0.0
15/07:00pm 28.5 28.8 16.1 47 7.7 NNE 9 11 5 6 1009.2 - 0.0
15/06:30pm 30.0 29.8 15.7 42 8.8 ENE 11 17 6 9 1008.9 - 0.0
15/06:00pm 32.7 35.9 18.8 43 9.1 CALM 0 0 0 0 1008.3 1008.2 0.0
15/05:30pm 33.8 34.4 15.3 33 11.5 SE 6 11 3 6 1008.0 - 0.0
15/05:00pm 34.4 33.7 14.3 30 12.4 SSE 11 15 6 8 1007.9 - 0.0
15/04:30pm 35.6 35.6 14.3 28 13.2 ESE 7 13 4 7 1007.8 - 0.0
15/04:00pm 35.6 35.3 14.3 28 13.2 SE 9 20 5 11 1007.7 - 0.0
15/03:30pm 36.0 35.0 14.6 27 13.3 ESE 13 24 7 13 1007.6 - 0.0
15/03:00pm 35.6 34.7 14.8 28 13.0 SE 13 22 7 12 1007.9 1007.8 0.0
15/02:30pm 35.9 35.7 15.6 30 12.8 ESE 11 17 6 9 1008.3 - 0.0
15/02:00pm 35.2 34.4 15.0 30 12.6 ESE 13 20 7 11 1008.6 - 0.0
15/01:30pm 34.9 35.1 15.7 31 12.1 ESE 9 17 5 9 1009.1 - 0.0
15/01:00pm 34.6 34.3 15.5 32 12.0 SE 11 15 6 8 1009.6 - 0.0

Other Formats:

Comma delimited format used in spreadsheet applications
http://www.bom.gov.au/fwo/IDD60801/IDD60801.94152.axf

JavaScript Object Notation format (JSON) in row-major order
http://www.bom.gov.au/fwo/IDD60801/IDD60801.94152.json